EGGW - Luton Airport
Distance from station: E 5mi, 14km
Updated: 06/20/2018 11:20pm
Partly Cloudy
Partly Cloudy
 Wind from NW
Wind: NW 17 mph , 28 km/h
Temperature: 52°F , 11°C
Dew Point: 43°F , 6°C
Humidity: 72%
Barometer: 30.21 inHg , 1023 hPa
Clouds: Partly Cloudy
Visibility: 6 miles , 10 km
Cloud details: Partly Cloudy 2100 ft
2018/06/21 06:20 EGGW 210620Z AUTO 32015KT 9999 SCT021 11/06 Q1023